sensor_id;sensor_type;location;lat;lon;timestamp;temperature;humidity
42885;DHT22;28534;48.100;11.584;2023-09-19T00:00:55;24.50;63.80
42885;DHT22;28534;48.100;11.584;2023-09-19T00:01:57;24.40;63.70
42885;DHT22;28534;48.100;11.584;2023-09-19T00:02:58;24.40;63.70
42885;DHT22;28534;48.100;11.584;2023-09-19T00:04:00;24.50;63.80
42885;DHT22;28534;48.100;11.584;2023-09-19T00:05:01;24.50;63.70
42885;DHT22;28534;48.100;11.584;2023-09-19T00:06:04;24.50;63.80
42885;DHT22;28534;48.100;11.584;2023-09-19T00:07:07;24.50;63.70
42885;DHT22;28534;48.100;11.584;2023-09-19T00:08:09;24.50;63.80
42885;DHT22;28534;48.100;11.584;2023-09-19T00:09:11;24.50;63.70
42885;DHT22;28534;48.100;11.584;2023-09-19T00:10:11;24.50;63.70
42885;DHT22;28534;48.100;11.584;2023-09-19T00:11:13;24.50;63.70
42885;DHT22;28534;48.100;11.584;2023-09-19T00:12:15;24.50;63.80
42885;DHT22;28534;48.100;11.584;2023-09-19T00:13:18;24.50;63.70
42885;DHT22;28534;48.100;11.584;2023-09-19T00:14:19;24.40;63.60
42885;DHT22;28534;48.100;11.584;2023-09-19T00:15:25;24.50;63.80
42885;DHT22;28534;48.100;11.584;2023-09-19T00:16:25;24.50;63.80
42885;DHT22;28534;48.100;11.584;2023-09-19T00:17:27;24.40;63.70
42885;DHT22;28534;48.100;11.584;2023-09-19T00:18:30;24.50;63.80
42885;DHT22;28534;48.100;11.584;2023-09-19T00:19:35;24.50;63.80
42885;DHT22;28534;48.100;11.584;2023-09-19T00:20:36;24.50;63.80
42885;DHT22;28534;48.100;11.584;2023-09-19T00:21:38;24.50;63.80
42885;DHT22;28534;48.100;11.584;2023-09-19T00:22:39;24.50;63.80
42885;DHT22;28534;48.100;11.584;2023-09-19T00:23:40;24.50;63.80
42885;DHT22;28534;48.100;11.584;2023-09-19T00:24:42;24.40;63.70
42885;DHT22;28534;48.100;11.584;2023-09-19T00:25:43;24.50;63.80
42885;DHT22;28534;48.100;11.584;2023-09-19T00:26:45;24.40;63.70
42885;DHT22;28534;48.100;11.584;2023-09-19T00:27:48;24.50;63.80
42885;DHT22;28534;48.100;11.584;2023-09-19T00:28:52;24.40;63.70
42885;DHT22;28534;48.100;11.584;2023-09-19T00:29:52;24.50;63.80
42885;DHT22;28534;48.100;11.584;2023-09-19T00:30:54;24.40;63.70
42885;DHT22;28534;48.100;11.584;2023-09-19T00:31:55;24.40;63.60
42885;DHT22;28534;48.100;11.584;2023-09-19T00:32:58;24.50;63.70
42885;DHT22;28534;48.100;11.584;2023-09-19T00:33:58;24.50;63.70
42885;DHT22;28534;48.100;11.584;2023-09-19T00:35:04;24.50;63.70
42885;DHT22;28534;48.100;11.584;2023-09-19T00:36:05;24.50;63.70
42885;DHT22;28534;48.100;11.584;2023-09-19T00:37:07;24.40;63.60
42885;DHT22;28534;48.100;11.584;2023-09-19T00:38:08;24.50;63.70
42885;DHT22;28534;48.100;11.584;2023-09-19T00:39:08;24.50;63.70
42885;DHT22;28534;48.100;11.584;2023-09-19T00:40:10;24.50;63.70
42885;DHT22;28534;48.100;11.584;2023-09-19T00:41:12;24.40;63.60
42885;DHT22;28534;48.100;11.584;2023-09-19T00:42:17;24.50;63.70
42885;DHT22;28534;48.100;11.584;2023-09-19T00:43:21;24.50;63.70
42885;DHT22;28534;48.100;11.584;2023-09-19T00:44:24;24.40;63.60
42885;DHT22;28534;48.100;11.584;2023-09-19T00:45:24;24.40;63.60
42885;DHT22;28534;48.100;11.584;2023-09-19T00:46:26;24.40;63.60
42885;DHT22;28534;48.100;11.584;2023-09-19T00:47:27;24.40;63.60
42885;DHT22;28534;48.100;11.584;2023-09-19T00:48:30;24.50;63.70
42885;DHT22;28534;48.100;11.584;2023-09-19T00:49:30;24.50;63.70
42885;DHT22;28534;48.100;11.584;2023-09-19T00:50:33;24.40;63.60
42885;DHT22;28534;48.100;11.584;2023-09-19T00:51:34;24.40;63.60
42885;DHT22;28534;48.100;11.584;2023-09-19T00:52:36;24.40;63.60
42885;DHT22;28534;48.100;11.584;2023-09-19T00:53:39;24.50;63.70
42885;DHT22;28534;48.100;11.584;2023-09-19T00:54:42;24.40;63.60
42885;DHT22;28534;48.100;11.584;2023-09-19T00:55:43;24.40;63.60
42885;DHT22;28534;48.100;11.584;2023-09-19T00:56:45;24.40;63.60
42885;DHT22;28534;48.100;11.584;2023-09-19T00:57:49;24.40;63.60
42885;DHT22;28534;48.100;11.584;2023-09-19T00:58:51;24.40;63.60
42885;DHT22;28534;48.100;11.584;2023-09-19T00:59:53;24.40;63.60
42885;DHT22;28534;48.100;11.584;2023-09-19T01:00:54;24.30;63.60
42885;DHT22;28534;48.100;11.584;2023-09-19T01:01:56;24.40;63.60
42885;DHT22;28534;48.100;11.584;2023-09-19T01:02:57;24.40;63.70
42885;DHT22;28534;48.100;11.584;2023-09-19T01:03:58;24.40;63.60
42885;DHT22;28534;48.100;11.584;2023-09-19T01:04:59;24.30;63.60
42885;DHT22;28534;48.100;11.584;2023-09-19T01:06:01;24.40;63.60
42885;DHT22;28534;48.100;11.584;2023-09-19T01:07:02;24.40;63.60
42885;DHT22;28534;48.100;11.584;2023-09-19T01:08:05;24.40;63.60
42885;DHT22;28534;48.100;11.584;2023-09-19T01:09:06;24.40;63.50
42885;DHT22;28534;48.100;11.584;2023-09-19T01:10:09;24.40;63.60
42885;DHT22;28534;48.100;11.584;2023-09-19T01:11:12;24.40;63.60
42885;DHT22;28534;48.100;11.584;2023-09-19T01:12:15;24.40;63.60
42885;DHT22;28534;48.100;11.584;2023-09-19T01:13:21;24.50;63.60
42885;DHT22;28534;48.100;11.584;2023-09-19T01:14:28;24.40;63.60
42885;DHT22;28534;48.100;11.584;2023-09-19T01:15:32;24.40;63.60
42885;DHT22;28534;48.100;11.584;2023-09-19T01:16:39;24.50;63.70
42885;DHT22;28534;48.100;11.584;2023-09-19T01:17:45;24.40;63.60
42885;DHT22;28534;48.100;11.584;2023-09-19T01:18:50;24.40;63.60
42885;DHT22;28534;48.100;11.584;2023-09-19T01:20:03;24.40;63.50
42885;DHT22;28534;48.100;11.584;2023-09-19T01:21:13;24.40;63.50
42885;DHT22;28534;48.100;11.584;2023-09-19T01:22:16;24.40;63.60
42885;DHT22;28534;48.100;11.584;2023-09-19T01:23:20;24.40;63.60
42885;DHT22;28534;48.100;11.584;2023-09-19T01:24:55;24.40;63.60
42885;DHT22;28534;48.100;11.584;2023-09-19T01:26:06;24.40;63.50
42885;DHT22;28534;48.100;11.584;2023-09-19T01:27:17;24.40;63.50
42885;DHT22;28534;48.100;11.584;2023-09-19T01:28:29;24.40;63.50
42885;DHT22;28534;48.100;11.584;2023-09-19T01:29:34;24.40;63.50
42885;DHT22;28534;48.100;11.584;2023-09-19T01:30:43;24.40;63.50
42885;DHT22;28534;48.100;11.584;2023-09-19T01:31:44;24.40;63.50
42885;DHT22;28534;48.100;11.584;2023-09-19T01:32:46;24.40;63.50
42885;DHT22;28534;48.100;11.584;2023-09-19T01:33:57;24.40;63.50
42885;DHT22;28534;48.100;11.584;2023-09-19T01:34:59;24.40;63.50
42885;DHT22;28534;48.100;11.584;2023-09-19T01:36:04;24.40;63.50
42885;DHT22;28534;48.100;11.584;2023-09-19T01:37:05;24.40;63.50
42885;DHT22;28534;48.100;11.584;2023-09-19T01:38:08;24.40;63.40
42885;DHT22;28534;48.100;11.584;2023-09-19T01:39:11;24.40;63.50
42885;DHT22;28534;48.100;11.584;2023-09-19T01:40:14;24.40;63.40
42885;DHT22;28534;48.100;11.584;2023-09-19T01:41:17;24.40;63.40
42885;DHT22;28534;48.100;11.584;2023-09-19T01:42:22;24.40;63.40
42885;DHT22;28534;48.100;11.584;2023-09-19T01:43:26;24.50;63.60
42885;DHT22;28534;48.100;11.584;2023-09-19T01:44:29;24.40;63.40
42885;DHT22;28534;48.100;11.584;2023-09-19T01:45:33;24.40;63.40
42885;DHT22;28534;48.100;11.584;2023-09-19T01:46:37;24.40;63.40
42885;DHT22;28534;48.100;11.584;2023-09-19T01:47:41;24.40;63.40
42885;DHT22;28534;48.100;11.584;2023-09-19T01:48:46;24.40;63.40
42885;DHT22;28534;48.100;11.584;2023-09-19T01:49:50;24.40;63.40
42885;DHT22;28534;48.100;11.584;2023-09-19T01:50:59;24.40;63.40
42885;DHT22;28534;48.100;11.584;2023-09-19T01:52:02;24.40;63.40
42885;DHT22;28534;48.100;11.584;2023-09-19T01:53:05;24.40;63.40
42885;DHT22;28534;48.100;11.584;2023-09-19T01:54:09;24.40;63.40
42885;DHT22;28534;48.100;11.584;2023-09-19T01:55:11;24.40;63.40
42885;DHT22;28534;48.100;11.584;2023-09-19T01:56:23;24.40;63.50
42885;DHT22;28534;48.100;11.584;2023-09-19T01:57:26;24.40;63.40
42885;DHT22;28534;48.100;11.584;2023-09-19T01:58:32;24.40;63.50
42885;DHT22;28534;48.100;11.584;2023-09-19T01:59:35;24.40;63.40
42885;DHT22;28534;48.100;11.584;2023-09-19T02:00:38;24.40;63.40
42885;DHT22;28534;48.100;11.584;2023-09-19T02:01:42;24.40;63.40
42885;DHT22;28534;48.100;11.584;2023-09-19T02:02:46;24.40;63.40
42885;DHT22;28534;48.100;11.584;2023-09-19T02:03:47;24.30;63.40
42885;DHT22;28534;48.100;11.584;2023-09-19T02:04:49;24.40;63.40
42885;DHT22;28534;48.100;11.584;2023-09-19T02:05:51;24.40;63.40
42885;DHT22;28534;48.100;11.584;2023-09-19T02:06:54;24.30;63.40
42885;DHT22;28534;48.100;11.584;2023-09-19T02:07:55;24.40;63.40
42885;DHT22;28534;48.100;11.584;2023-09-19T02:08:59;24.40;63.40
42885;DHT22;28534;48.100;11.584;2023-09-19T02:10:00;24.40;63.40
42885;DHT22;28534;48.100;11.584;2023-09-19T02:11:00;24.40;63.40
42885;DHT22;28534;48.100;11.584;2023-09-19T02:12:02;24.40;63.40
42885;DHT22;28534;48.100;11.584;2023-09-19T02:13:04;24.40;63.40
42885;DHT22;28534;48.100;11.584;2023-09-19T02:14:04;24.40;63.50
42885;DHT22;28534;48.100;11.584;2023-09-19T02:15:09;24.40;63.40
42885;DHT22;28534;48.100;11.584;2023-09-19T02:16:09;24.40;63.40
42885;DHT22;28534;48.100;11.584;2023-09-19T02:17:12;24.40;63.40
42885;DHT22;28534;48.100;11.584;2023-09-19T02:18:13;24.40;63.40
42885;DHT22;28534;48.100;11.584;2023-09-19T02:19:14;24.30;63.40
42885;DHT22;28534;48.100;11.584;2023-09-19T02:20:16;24.40;63.40
42885;DHT22;28534;48.100;11.584;2023-09-19T02:21:17;24.40;63.40
42885;DHT22;28534;48.100;11.584;2023-09-19T02:22:19;24.40;63.40
42885;DHT22;28534;48.100;11.584;2023-09-19T02:23:19;24.30;63.40
42885;DHT22;28534;48.100;11.584;2023-09-19T02:24:21;24.30;63.40
42885;DHT22;28534;48.100;11.584;2023-09-19T02:25:22;24.30;63.40
42885;DHT22;28534;48.100;11.584;2023-09-19T02:26:23;24.40;63.40
42885;DHT22;28534;48.100;11.584;2023-09-19T02:27:24;24.40;63.40
42885;DHT22;28534;48.100;11.584;2023-09-19T02:28:26;24.40;63.40
42885;DHT22;28534;48.100;11.584;2023-09-19T02:29:30;24.40;63.40
42885;DHT22;28534;48.100;11.584;2023-09-19T02:30:32;24.30;63.40
42885;DHT22;28534;48.100;11.584;2023-09-19T02:31:32;24.40;63.40
42885;DHT22;28534;48.100;11.584;2023-09-19T02:32:35;24.30;63.40
42885;DHT22;28534;48.100;11.584;2023-09-19T02:33:38;24.30;63.40
42885;DHT22;28534;48.100;11.584;2023-09-19T02:34:39;24.40;63.40
42885;DHT22;28534;48.100;11.584;2023-09-19T02:35:42;24.40;63.40
42885;DHT22;28534;48.100;11.584;2023-09-19T02:36:43;24.30;63.30
42885;DHT22;28534;48.100;11.584;2023-09-19T02:37:45;24.30;63.30
42885;DHT22;28534;48.100;11.584;2023-09-19T02:38:45;24.40;63.40
42885;DHT22;28534;48.100;11.584;2023-09-19T02:39:47;24.30;63.40
42885;DHT22;28534;48.100;11.584;2023-09-19T02:40:48;24.30;63.30
42885;DHT22;28534;48.100;11.584;2023-09-19T02:41:50;24.40;63.40
42885;DHT22;28534;48.100;11.584;2023-09-19T02:42:52;24.40;63.40
42885;DHT22;28534;48.100;11.584;2023-09-19T02:43:54;24.30;63.30
42885;DHT22;28534;48.100;11.584;2023-09-19T02:44:56;24.40;63.40
42885;DHT22;28534;48.100;11.584;2023-09-19T02:45:58;24.40;63.30
42885;DHT22;28534;48.100;11.584;2023-09-19T02:46:59;24.30;63.20
42885;DHT22;28534;48.100;11.584;2023-09-19T02:48:02;24.40;63.20
42885;DHT22;28534;48.100;11.584;2023-09-19T02:49:04;24.40;63.30
42885;DHT22;28534;48.100;11.584;2023-09-19T02:50:07;24.40;63.20
42885;DHT22;28534;48.100;11.584;2023-09-19T02:51:10;24.30;63.20
42885;DHT22;28534;48.100;11.584;2023-09-19T02:52:11;24.40;63.20
42885;DHT22;28534;48.100;11.584;2023-09-19T02:53:14;24.40;63.20
42885;DHT22;28534;48.100;11.584;2023-09-19T02:54:16;24.30;63.20
42885;DHT22;28534;48.100;11.584;2023-09-19T02:55:18;24.40;63.20
42885;DHT22;28534;48.100;11.584;2023-09-19T02:56:20;24.40;63.20
42885;DHT22;28534;48.100;11.584;2023-09-19T02:57:20;24.30;63.20
42885;DHT22;28534;48.100;11.584;2023-09-19T02:58:24;24.40;63.30
42885;DHT22;28534;48.100;11.584;2023-09-19T02:59:25;24.30;63.20
42885;DHT22;28534;48.100;11.584;2023-09-19T03:00:28;24.30;63.20
42885;DHT22;28534;48.100;11.584;2023-09-19T03:01:30;24.40;63.30
42885;DHT22;28534;48.100;11.584;2023-09-19T03:02:32;24.30;63.20
42885;DHT22;28534;48.100;11.584;2023-09-19T03:03:36;24.30;63.20
42885;DHT22;28534;48.100;11.584;2023-09-19T03:04:37;24.30;63.20
42885;DHT22;28534;48.100;11.584;2023-09-19T03:05:39;24.30;63.20
42885;DHT22;28534;48.100;11.584;2023-09-19T03:06:40;24.40;63.20
42885;DHT22;28534;48.100;11.584;2023-09-19T03:07:41;24.30;63.20
42885;DHT22;28534;48.100;11.584;2023-09-19T03:08:43;24.30;63.20
42885;DHT22;28534;48.100;11.584;2023-09-19T03:09:44;24.40;63.20
42885;DHT22;28534;48.100;11.584;2023-09-19T03:10:46;24.40;63.20
42885;DHT22;28534;48.100;11.584;2023-09-19T03:11:46;24.30;63.20
42885;DHT22;28534;48.100;11.584;2023-09-19T03:12:48;24.30;63.20
42885;DHT22;28534;48.100;11.584;2023-09-19T03:13:52;24.30;63.20
42885;DHT22;28534;48.100;11.584;2023-09-19T03:14:54;24.30;63.20
42885;DHT22;28534;48.100;11.584;2023-09-19T03:15:55;24.40;63.20
42885;DHT22;28534;48.100;11.584;2023-09-19T03:16:58;24.30;63.10
42885;DHT22;28534;48.100;11.584;2023-09-19T03:18:00;24.30;63.10
42885;DHT22;28534;48.100;11.584;2023-09-19T03:19:03;24.30;63.10
42885;DHT22;28534;48.100;11.584;2023-09-19T03:20:04;24.30;63.10
42885;DHT22;28534;48.100;11.584;2023-09-19T03:21:08;24.30;63.10
42885;DHT22;28534;48.100;11.584;2023-09-19T03:22:08;24.40;63.20
42885;DHT22;28534;48.100;11.584;2023-09-19T03:23:10;24.40;63.20
42885;DHT22;28534;48.100;11.584;2023-09-19T03:24:11;24.30;63.10
42885;DHT22;28534;48.100;11.584;2023-09-19T03:25:12;24.40;63.20
42885;DHT22;28534;48.100;11.584;2023-09-19T03:26:13;24.30;63.10
42885;DHT22;28534;48.100;11.584;2023-09-19T03:27:16;24.30;63.10
42885;DHT22;28534;48.100;11.584;2023-09-19T03:28:16;24.30;63.10
42885;DHT22;28534;48.100;11.584;2023-09-19T03:29:18;24.30;63.10
42885;DHT22;28534;48.100;11.584;2023-09-19T03:30:19;24.40;63.20
42885;DHT22;28534;48.100;11.584;2023-09-19T03:31:21;24.30;63.10
42885;DHT22;28534;48.100;11.584;2023-09-19T03:32:22;24.30;63.10
42885;DHT22;28534;48.100;11.584;2023-09-19T03:33:23;24.30;63.20
42885;DHT22;28534;48.100;11.584;2023-09-19T03:34:25;24.30;63.20
42885;DHT22;28534;48.100;11.584;2023-09-19T03:35:27;24.30;63.20
42885;DHT22;28534;48.100;11.584;2023-09-19T03:36:28;24.30;63.20
42885;DHT22;28534;48.100;11.584;2023-09-19T03:37:30;24.30;63.20
42885;DHT22;28534;48.100;11.584;2023-09-19T03:38:31;24.30;63.20
42885;DHT22;28534;48.100;11.584;2023-09-19T03:39:32;24.30;63.20
42885;DHT22;28534;48.100;11.584;2023-09-19T03:40:34;24.30;63.30
42885;DHT22;28534;48.100;11.584;2023-09-19T03:41:38;24.30;63.20
42885;DHT22;28534;48.100;11.584;2023-09-19T03:42:40;24.30;63.20
42885;DHT22;28534;48.100;11.584;2023-09-19T03:43:40;24.30;63.20
42885;DHT22;28534;48.100;11.584;2023-09-19T03:44:42;24.30;63.20
42885;DHT22;28534;48.100;11.584;2023-09-19T03:45:43;24.40;63.30
42885;DHT22;28534;48.100;11.584;2023-09-19T03:46:45;24.30;63.20
42885;DHT22;28534;48.100;11.584;2023-09-19T03:47:45;24.40;63.30
42885;DHT22;28534;48.100;11.584;2023-09-19T03:48:48;24.30;63.30
42885;DHT22;28534;48.100;11.584;2023-09-19T03:49:50;24.30;63.20
42885;DHT22;28534;48.100;11.584;2023-09-19T03:50:52;24.30;63.20
42885;DHT22;28534;48.100;11.584;2023-09-19T03:51:54;24.30;63.20
42885;DHT22;28534;48.100;11.584;2023-09-19T03:52:56;24.30;63.20
42885;DHT22;28534;48.100;11.584;2023-09-19T03:53:56;24.30;63.20
42885;DHT22;28534;48.100;11.584;2023-09-19T03:54:58;24.30;63.20
42885;DHT22;28534;48.100;11.584;2023-09-19T03:55:58;24.30;63.20
42885;DHT22;28534;48.100;11.584;2023-09-19T03:57:00;24.30;63.20
42885;DHT22;28534;48.100;11.584;2023-09-19T03:58:01;24.30;63.20
42885;DHT22;28534;48.100;11.584;2023-09-19T03:59:01;24.30;63.20
42885;DHT22;28534;48.100;11.584;2023-09-19T04:00:04;24.30;63.20
42885;DHT22;28534;48.100;11.584;2023-09-19T04:01:05;24.30;63.20
42885;DHT22;28534;48.100;11.584;2023-09-19T04:02:07;24.30;63.20
42885;DHT22;28534;48.100;11.584;2023-09-19T04:03:12;24.30;63.20
42885;DHT22;28534;48.100;11.584;2023-09-19T04:04:19;24.30;63.20
42885;DHT22;28534;48.100;11.584;2023-09-19T04:05:21;24.30;63.10
42885;DHT22;28534;48.100;11.584;2023-09-19T04:06:23;24.30;63.10
42885;DHT22;28534;48.100;11.584;2023-09-19T04:07:24;24.30;63.20
42885;DHT22;28534;48.100;11.584;2023-09-19T04:08:26;24.40;63.20
42885;DHT22;28534;48.100;11.584;2023-09-19T04:09:27;24.30;63.20
42885;DHT22;28534;48.100;11.584;2023-09-19T04:10:28;24.30;63.20
42885;DHT22;28534;48.100;11.584;2023-09-19T04:11:30;24.30;63.20
42885;DHT22;28534;48.100;11.584;2023-09-19T04:12:30;24.30;63.10
42885;DHT22;28534;48.100;11.584;2023-09-19T04:13:32;24.30;63.10
42885;DHT22;28534;48.100;11.584;2023-09-19T04:14:33;24.30;63.10
42885;DHT22;28534;48.100;11.584;2023-09-19T04:15:34;24.40;63.10
42885;DHT22;28534;48.100;11.584;2023-09-19T04:16:35;24.30;63.20
42885;DHT22;28534;48.100;11.584;2023-09-19T04:17:37;24.40;64.20
42885;DHT22;28534;48.100;11.584;2023-09-19T04:18:37;24.30;63.50
42885;DHT22;28534;48.100;11.584;2023-09-19T04:19:40;24.40;64.10
42885;DHT22;28534;48.100;11.584;2023-09-19T04:20:48;24.40;63.70
42885;DHT22;28534;48.100;11.584;2023-09-19T04:21:49;24.40;63.80
42885;DHT22;28534;48.100;11.584;2023-09-19T04:22:50;24.40;63.80
42885;DHT22;28534;48.100;11.584;2023-09-19T04:23:52;24.50;63.80
42885;DHT22;28534;48.100;11.584;2023-09-19T04:24:52;24.40;63.60
42885;DHT22;28534;48.100;11.584;2023-09-19T04:25:54;24.40;63.70
42885;DHT22;28534;48.100;11.584;2023-09-19T04:26:54;24.40;63.60
42885;DHT22;28534;48.100;11.584;2023-09-19T04:27:57;24.40;63.80
42885;DHT22;28534;48.100;11.584;2023-09-19T04:28:58;24.40;63.80
42885;DHT22;28534;48.100;11.584;2023-09-19T04:30:01;24.40;63.90
42885;DHT22;28534;48.100;11.584;2023-09-19T04:31:04;24.40;63.90
42885;DHT22;28534;48.100;11.584;2023-09-19T04:32:05;24.50;63.90
42885;DHT22;28534;48.100;11.584;2023-09-19T04:33:06;24.40;63.90
42885;DHT22;28534;48.100;11.584;2023-09-19T04:34:07;24.40;64.20
42885;DHT22;28534;48.100;11.584;2023-09-19T04:35:09;24.40;64.30
42885;DHT22;28534;48.100;11.584;2023-09-19T04:36:13;24.40;64.30
42885;DHT22;28534;48.100;11.584;2023-09-19T04:37:13;24.40;64.40
42885;DHT22;28534;48.100;11.584;2023-09-19T04:38:15;24.40;64.50
42885;DHT22;28534;48.100;11.584;2023-09-19T04:39:16;24.40;64.70
42885;DHT22;28534;48.100;11.584;2023-09-19T04:40:18;24.40;64.20
42885;DHT22;28534;48.100;11.584;2023-09-19T04:41:19;24.30;64.30
42885;DHT22;28534;48.100;11.584;2023-09-19T04:42:22;24.40;64.40
42885;DHT22;28534;48.100;11.584;2023-09-19T04:43:25;24.40;64.50
42885;DHT22;28534;48.100;11.584;2023-09-19T04:44:26;24.40;64.20
42885;DHT22;28534;48.100;11.584;2023-09-19T04:45:28;24.30;64.00
42885;DHT22;28534;48.100;11.584;2023-09-19T04:46:29;24.40;63.80
42885;DHT22;28534;48.100;11.584;2023-09-19T04:47:31;24.40;64.30
42885;DHT22;28534;48.100;11.584;2023-09-19T04:48:32;24.40;64.50
42885;DHT22;28534;48.100;11.584;2023-09-19T04:49:34;24.40;64.50
42885;DHT22;28534;48.100;11.584;2023-09-19T04:50:35;24.40;64.40
42885;DHT22;28534;48.100;11.584;2023-09-19T04:51:38;24.40;65.00
42885;DHT22;28534;48.100;11.584;2023-09-19T04:52:40;24.40;64.60
42885;DHT22;28534;48.100;11.584;2023-09-19T04:53:44;24.40;63.90
42885;DHT22;28534;48.100;11.584;2023-09-19T04:54:45;24.40;63.90
42885;DHT22;28534;48.100;11.584;2023-09-19T04:55:49;24.40;63.80
42885;DHT22;28534;48.100;11.584;2023-09-19T04:56:50;24.40;65.10
42885;DHT22;28534;48.100;11.584;2023-09-19T04:57:52;24.40;64.40
42885;DHT22;28534;48.100;11.584;2023-09-19T04:58:53;24.40;64.80
42885;DHT22;28534;48.100;11.584;2023-09-19T04:59:54;24.40;65.10
42885;DHT22;28534;48.100;11.584;2023-09-19T05:00:55;24.40;64.80
42885;DHT22;28534;48.100;11.584;2023-09-19T05:01:56;24.40;64.80
42885;DHT22;28534;48.100;11.584;2023-09-19T05:02:58;24.50;65.70
42885;DHT22;28534;48.100;11.584;2023-09-19T05:03:58;24.50;64.40
42885;DHT22;28534;48.100;11.584;2023-09-19T05:05:01;24.50;64.60
42885;DHT22;28534;48.100;11.584;2023-09-19T05:06:02;24.40;64.80
42885;DHT22;28534;48.100;11.584;2023-09-19T05:07:06;24.40;65.70
42885;DHT22;28534;48.100;11.584;2023-09-19T05:08:07;24.50;65.00
42885;DHT22;28534;48.100;11.584;2023-09-19T05:09:09;24.40;65.20
42885;DHT22;28534;48.100;11.584;2023-09-19T05:10:10;24.40;65.10
42885;DHT22;28534;48.100;11.584;2023-09-19T05:11:12;24.40;65.20
42885;DHT22;28534;48.100;11.584;2023-09-19T05:12:13;24.40;65.20
42885;DHT22;28534;48.100;11.584;2023-09-19T05:13:14;24.50;65.30
42885;DHT22;28534;48.100;11.584;2023-09-19T05:14:15;24.40;65.20
42885;DHT22;28534;48.100;11.584;2023-09-19T05:15:16;24.40;65.10
42885;DHT22;28534;48.100;11.584;2023-09-19T05:16:18;24.50;65.30
42885;DHT22;28534;48.100;11.584;2023-09-19T05:17:19;24.50;65.30
42885;DHT22;28534;48.100;11.584;2023-09-19T05:18:20;24.50;65.30
42885;DHT22;28534;48.100;11.584;2023-09-19T05:19:22;24.50;64.90
42885;DHT22;28534;48.100;11.584;2023-09-19T05:20:24;24.50;65.00
42885;DHT22;28534;48.100;11.584;2023-09-19T05:21:30;24.50;64.80
42885;DHT22;28534;48.100;11.584;2023-09-19T05:22:33;24.50;64.70
42885;DHT22;28534;48.100;11.584;2023-09-19T05:23:33;24.50;64.90
42885;DHT22;28534;48.100;11.584;2023-09-19T05:24:35;24.40;64.20
42885;DHT22;28534;48.100;11.584;2023-09-19T05:25:36;24.40;63.70
42885;DHT22;28534;48.100;11.584;2023-09-19T05:26:39;24.40;63.50
42885;DHT22;28534;48.100;11.584;2023-09-19T05:27:40;24.30;63.20
42885;DHT22;28534;48.100;11.584;2023-09-19T05:28:42;24.30;63.50
42885;DHT22;28534;48.100;11.584;2023-09-19T05:29:43;24.30;63.40
42885;DHT22;28534;48.100;11.584;2023-09-19T05:30:45;24.30;62.90
42885;DHT22;28534;48.100;11.584;2023-09-19T05:31:47;24.30;63.00
42885;DHT22;28534;48.100;11.584;2023-09-19T05:32:50;24.30;62.10
42885;DHT22;28534;48.100;11.584;2023-09-19T05:33:51;24.20;62.00
42885;DHT22;28534;48.100;11.584;2023-09-19T05:34:55;24.20;62.90
42885;DHT22;28534;48.100;11.584;2023-09-19T05:35:56;24.10;62.00
42885;DHT22;28534;48.100;11.584;2023-09-19T05:36:58;24.20;61.80
42885;DHT22;28534;48.100;11.584;2023-09-19T05:38:00;24.10;61.30
42885;DHT22;28534;48.100;11.584;2023-09-19T05:39:01;24.10;61.40
42885;DHT22;28534;48.100;11.584;2023-09-19T05:40:02;24.10;61.30
42885;DHT22;28534;48.100;11.584;2023-09-19T05:41:07;24.00;60.70
42885;DHT22;28534;48.100;11.584;2023-09-19T05:42:08;24.00;60.40
42885;DHT22;28534;48.100;11.584;2023-09-19T05:43:10;24.00;60.70
42885;DHT22;28534;48.100;11.584;2023-09-19T05:44:10;24.00;60.50
42885;DHT22;28534;48.100;11.584;2023-09-19T05:45:12;23.90;60.30
42885;DHT22;28534;48.100;11.584;2023-09-19T05:46:13;23.90;60.40
42885;DHT22;28534;48.100;11.584;2023-09-19T05:47:16;24.00;59.90
42885;DHT22;28534;48.100;11.584;2023-09-19T05:48:16;23.90;60.00
42885;DHT22;28534;48.100;11.584;2023-09-19T05:49:18;23.90;60.00
42885;DHT22;28534;48.100;11.584;2023-09-19T05:50:22;23.90;60.10
42885;DHT22;28534;48.100;11.584;2023-09-19T05:51:24;23.90;59.80
42885;DHT22;28534;48.100;11.584;2023-09-19T05:52:29;23.90;60.20
42885;DHT22;28534;48.100;11.584;2023-09-19T05:53:32;23.90;60.40
42885;DHT22;28534;48.100;11.584;2023-09-19T05:54:33;23.90;60.20
42885;DHT22;28534;48.100;11.584;2023-09-19T05:55:35;23.90;60.30
42885;DHT22;28534;48.100;11.584;2023-09-19T05:56:35;23.90;60.20
42885;DHT22;28534;48.100;11.584;2023-09-19T05:57:37;23.90;59.90
42885;DHT22;28534;48.100;11.584;2023-09-19T05:58:39;24.00;59.90
42885;DHT22;28534;48.100;11.584;2023-09-19T05:59:43;24.00;59.90
42885;DHT22;28534;48.100;11.584;2023-09-19T06:00:43;24.00;59.70
42885;DHT22;28534;48.100;11.584;2023-09-19T06:01:47;24.00;59.70
42885;DHT22;28534;48.100;11.584;2023-09-19T06:02:49;24.00;59.60
42885;DHT22;28534;48.100;11.584;2023-09-19T06:03:51;24.10;59.80
42885;DHT22;28534;48.100;11.584;2023-09-19T06:04:53;24.00;59.50
42885;DHT22;28534;48.100;11.584;2023-09-19T06:05:55;24.00;59.40
42885;DHT22;28534;48.100;11.584;2023-09-19T06:06:57;24.00;59.70
42885;DHT22;28534;48.100;11.584;2023-09-19T06:07:59;24.00;59.80
42885;DHT22;28534;48.100;11.584;2023-09-19T06:09:01;24.00;60.00
42885;DHT22;28534;48.100;11.584;2023-09-19T06:10:05;24.00;59.90
42885;DHT22;28534;48.100;11.584;2023-09-19T06:11:07;23.90;59.40
42885;DHT22;28534;48.100;11.584;2023-09-19T06:12:09;23.80;59.50
42885;DHT22;28534;48.100;11.584;2023-09-19T06:13:10;23.80;59.80
42885;DHT22;28534;48.100;11.584;2023-09-19T06:14:11;23.80;59.80
42885;DHT22;28534;48.100;11.584;2023-09-19T06:15:13;23.70;59.60
42885;DHT22;28534;48.100;11.584;2023-09-19T06:16:15;23.90;59.70
42885;DHT22;28534;48.100;11.584;2023-09-19T06:17:16;23.90;59.50
42885;DHT22;28534;48.100;11.584;2023-09-19T06:18:20;23.80;59.60
42885;DHT22;28534;48.100;11.584;2023-09-19T06:19:21;23.90;59.80
42885;DHT22;28534;48.100;11.584;2023-09-19T06:20:26;23.80;59.40
42885;DHT22;28534;48.100;11.584;2023-09-19T06:21:27;23.80;59.40
42885;DHT22;28534;48.100;11.584;2023-09-19T06:22:28;23.80;59.40
42885;DHT22;28534;48.100;11.584;2023-09-19T06:23:29;23.80;59.40
42885;DHT22;28534;48.100;11.584;2023-09-19T06:24:32;23.80;59.60
42885;DHT22;28534;48.100;11.584;2023-09-19T06:25:33;23.80;59.50
42885;DHT22;28534;48.100;11.584;2023-09-19T06:26:34;23.90;59.40
42885;DHT22;28534;48.100;11.584;2023-09-19T06:27:35;23.90;59.30